Time;durP1;ratioP1;P1;durP2;ratioP2;P2;SDS_P1;SDS_P2;PMS_P1;PMS_P2;Temp;Humidity;BMP_temperature;BMP_pressure;BME280_temperature;BME280_humidity;BME280_pressure;Samples;Min_cycle;Max_cycle;Signal;HPM_P1;HPM_P2
2023/08/05 00:01:06;;;;;;;7.88;5.70;;;23.20;99.90;;;;;;5028506;28;20036;-79
2023/08/05 00:03:32;;;;;;;7.13;6.38;;;23.30;99.90;;;;;;5026930;28;20422;-77
2023/08/05 00:05:58;;;;;;;10.80;6.63;;;23.20;99.90;;;;;;5028104;28;20485;-79
2023/08/05 00:08:24;;;;;;;8.55;7.10;;;23.30;99.90;;;;;;5028093;28;20029;-80
2023/08/05 00:10:50;;;;;;;11.07;6.72;;;23.20;99.90;;;;;;5028142;28;20037;-78
2023/08/05 00:13:16;;;;;;;7.07;5.40;;;23.20;99.90;;;;;;5028082;28;20068;-78
2023/08/05 00:15:42;;;;;;;10.68;5.22;;;23.20;99.90;;;;;;5028286;28;20040;-79
2023/08/05 00:18:09;;;;;;;7.57;5.47;;;23.40;99.90;;;;;;5028153;28;20032;-77
2023/08/05 00:20:34;;;;;;;6.32;4.13;;;23.70;99.90;;;;;;5031661;28;20845;-76
2023/08/05 00:23:00;;;;;;;10.82;5.18;;;24.00;99.90;;;;;;5031817;28;20037;-79
2023/08/05 00:25:26;;;;;;;8.73;5.03;;;24.30;99.90;;;;;;5030536;28;20079;-79
2023/08/05 00:27:51;;;;;;;5.60;4.43;;;24.50;99.90;;;;;;5031624;28;20033;-79
2023/08/05 00:30:17;;;;;;;6.65;4.95;;;24.60;99.90;;;;;;5031707;28;20041;-79
2023/08/05 00:32:43;;;;;;;8.80;5.00;;;24.70;99.90;;;;;;5030356;28;20037;-79
2023/08/05 00:35:08;;;;;;;7.10;4.38;;;24.90;99.90;;;;;;5031502;28;20560;-79
2023/08/05 00:37:35;;;;;;;7.25;4.35;;;25.20;99.90;;;;;;5031665;28;20017;-79
2023/08/05 00:40:01;;;;;;;5.50;3.97;;;25.50;99.90;;;;;;5031622;28;20029;-78
2023/08/05 00:42:27;;;;;;;6.05;4.38;;;25.60;99.90;;;;;;5030237;28;20040;-80
2023/08/05 00:44:53;;;;;;;7.03;4.50;;;25.80;99.90;;;;;;5031488;28;20021;-79
2023/08/05 00:47:19;;;;;;;6.05;4.35;;;25.90;99.90;;;;;;5030269;28;20029;-79
2023/08/05 00:49:47;;;;;;;4.88;3.80;;;26.00;99.90;;;;;;5031112;28;20042;-79
2023/08/05 00:52:15;;;;;;;6.20;4.45;;;26.10;99.90;;;;;;5030884;28;20017;-80
2023/08/05 00:54:41;;;;;;;5.68;1.35;;;26.10;99.90;;;;;;5030057;28;20026;-77
2023/08/05 00:57:09;;;;;;;10.00;1.20;;;25.50;99.90;;;;;;5031020;28;20017;-78
2023/08/05 00:59:34;;;;;;;1.33;0.63;;;24.80;99.90;;;;;;5031094;28;20394;-79
2023/08/05 01:02:00;;;;;;;2.58;0.80;;;24.20;99.90;;;;;;5030967;28;20029;-79
2023/08/05 01:04:26;;;;;;;2.63;1.00;;;23.50;99.90;;;;;;5029288;28;20029;-77
2023/08/05 01:06:52;;;;;;;1.65;0.85;;;23.20;99.90;;;;;;5029897;28;20041;-78
2023/08/05 01:09:18;;;;;;;2.38;0.90;;;22.90;99.90;;;;;;5030967;28;20057;-78
2023/08/05 01:11:44;;;;;;;1.27;0.70;;;22.70;99.90;;;;;;5029159;28;20565;-77
2023/08/05 01:14:10;;;;;;;6.85;0.95;;;22.50;99.90;;;;;;5030931;28;20120;-79
2023/08/05 01:16:35;;;;;;;2.97;0.50;;;22.50;99.90;;;;;;5030918;28;20091;-78
2023/08/05 01:19:04;;;;;;;0.90;0.70;;;22.40;99.90;;;;;;5030616;28;20193;-78
2023/08/05 01:21:49;;;;;;;1.13;0.50;;;22.40;99.90;;;;;;5029659;28;20033;-78
2023/08/05 01:24:26;;;;;;;1.67;0.75;;;22.50;99.90;;;;;;5030679;28;20127;-78
2023/08/05 01:26:54;;;;;;;15.35;2.25;;;22.50;99.90;;;;;;5030370;28;20033;-77
2023/08/05 01:29:20;;;;;;;2.25;0.90;;;22.40;99.90;;;;;;5029176;28;20405;-77
2023/08/05 01:31:48;;;;;;;2.08;0.75;;;22.40;99.90;;;;;;5028716;28;20040;-78
2023/08/05 01:34:14;;;;;;;2.35;0.65;;;22.50;99.90;;;;;;5029293;28;20485;-78
2023/08/05 01:36:40;;;;;;;4.03;0.77;;;22.50;99.90;;;;;;5030593;28;20036;-79
2023/08/05 01:39:05;;;;;;;4.32;0.70;;;22.40;99.90;;;;;;5029088;28;20018;-78
2023/08/05 01:41:31;;;;;;;2.65;0.50;;;22.20;99.90;;;;;;5030495;28;20068;-78
2023/08/05 01:43:56;;;;;;;1.23;0.93;;;22.00;99.90;;;;;;5029168;28;20040;-78
2023/08/05 01:46:22;;;;;;;3.75;0.68;;;21.80;99.90;;;;;;5030427;28;20513;-78
2023/08/05 01:48:48;;;;;;;1.13;0.60;;;21.70;99.90;;;;;;5030223;28;20401;-80
2023/08/05 01:51:13;;;;;;;0.98;0.55;;;21.60;99.90;;;;;;5030219;28;20048;-79
2023/08/05 01:53:39;;;;;;;1.45;0.70;;;21.40;99.90;;;;;;5029922;28;20037;-78
2023/08/05 01:56:04;;;;;;;2.83;0.98;;;21.40;99.90;;;;;;5029957;28;20036;-78
2023/08/05 01:58:30;;;;;;;4.35;1.13;;;21.20;99.90;;;;;;5030377;28;20120;-78
2023/08/05 02:00:56;;;;;;;21.80;3.53;;;21.10;99.90;;;;;;5031689;28;20402;-82
2023/08/05 02:03:22;;;;;;;14.85;2.65;;;21.00;99.90;;;;;;5039758;28;20501;-81
2023/08/05 02:05:47;;;;;;;8.27;2.00;;;20.70;99.90;;;;;;5035399;28;20437;-78
2023/08/05 02:08:13;;;;;;;7.53;2.35;;;20.60;99.90;;;;;;5029769;28;20047;-79
2023/08/05 02:10:40;;;;;;;8.20;1.77;;;20.40;99.90;;;;;;5030043;28;20041;-80
2023/08/05 02:13:06;;;;;;;6.35;1.98;;;20.30;99.90;;;;;;5030657;28;20573;-79
2023/08/05 02:15:32;;;;;;;2.38;1.00;;;20.10;99.90;;;;;;5030300;28;20124;-77
2023/08/05 02:17:57;;;;;;;4.93;0.75;;;20.10;99.90;;;;;;5031649;28;20029;-79
2023/08/05 02:20:23;;;;;;;4.15;1.10;;;20.00;99.90;;;;;;5029963;28;20068;-79
2023/08/05 02:22:49;;;;;;;1.23;0.60;;;20.00;99.90;;;;;;5029703;28;20061;-76
2023/08/05 02:25:14;;;;;;;1.98;0.88;;;20.10;99.90;;;;;;5029995;28;20025;-78
2023/08/05 02:27:40;;;;;;;2.67;0.40;;;20.10;99.90;;;;;;5030105;28;20553;-79
2023/08/05 02:30:08;;;;;;;4.50;0.50;;;20.20;99.90;;;;;;5031256;28;20034;-80
2023/08/05 02:32:33;;;;;;;0.80;0.40;;;20.20;99.90;;;;;;5031417;28;20025;-79
2023/08/05 02:34:59;;;;;;;2.70;0.65;;;20.20;99.90;;;;;;5030089;28;20067;-79
2023/08/05 02:37:25;;;;;;;1.80;0.40;;;20.20;99.90;;;;;;5031381;28;20516;-79
2023/08/05 02:39:50;;;;;;;2.20;0.60;;;20.30;99.90;;;;;;5031177;28;20030;-78
2023/08/05 02:42:16;;;;;;;4.13;0.60;;;20.30;99.90;;;;;;5028994;28;20075;-79
2023/08/05 02:44:42;;;;;;;0.80;0.50;;;20.40;99.90;;;;;;5031103;28;20037;-79
2023/08/05 02:47:07;;;;;;;0.90;0.40;;;20.40;99.90;;;;;;5031113;28;20026;-80
2023/08/05 02:49:33;;;;;;;1.65;0.40;;;20.50;99.90;;;;;;5029600;28;20061;-78
2023/08/05 02:51:59;;;;;;;0.75;0.40;;;20.60;99.90;;;;;;5030813;28;20540;-80
2023/08/05 02:54:25;;;;;;;1.38;0.50;;;20.60;99.90;;;;;;5030998;28;20100;-80
2023/08/05 02:56:51;;;;;;;4.68;1.35;;;20.50;99.90;;;;;;5030789;28;20053;-77
2023/08/05 02:59:16;;;;;;;7.80;1.35;;;20.60;99.90;;;;;;5030900;28;20028;-79
2023/08/05 03:01:42;;;;;;;3.75;0.88;;;20.60;99.90;;;;;;5029624;28;20102;-79
2023/08/05 03:04:08;;;;;;;2.05;0.70;;;20.60;99.90;;;;;;5030727;28;20025;-80
2023/08/05 03:06:34;;;;;;;2.03;0.60;;;20.60;99.90;;;;;;5030858;28;20025;-80
2023/08/05 03:09:00;;;;;;;4.53;1.23;;;20.70;99.90;;;;;;5029074;28;20119;-79
2023/08/05 03:11:30;;;;;;;3.38;1.58;;;20.70;99.90;;;;;;5029238;28;20030;-79
2023/08/05 03:13:56;;;;;;;7.20;1.27;;;20.80;99.90;;;;;;5027675;28;20042;-79
2023/08/05 03:16:21;;;;;;;2.90;1.00;;;20.70;99.90;;;;;;5029141;28;20029;-80
2023/08/05 03:18:47;;;;;;;4.93;1.23;;;20.80;99.90;;;;;;5027677;28;20031;-80
2023/08/05 03:21:13;;;;;;;4.93;1.23;;;20.70;99.90;;;;;;5028814;28;20478;-80
2023/08/05 03:23:38;;;;;;;5.07;1.65;;;20.80;99.90;;;;;;5028940;28;20044;-80
2023/08/05 03:26:04;;;;;;;4.68;1.52;;;20.80;99.90;;;;;;5028478;28;20438;-80
2023/08/05 03:28:30;;;;;;;2.50;0.80;;;20.80;99.90;;;;;;5030580;28;20034;-80
2023/08/05 03:30:56;;;;;;;5.68;1.00;;;20.80;99.90;;;;;;5030446;28;20037;-77
2023/08/05 03:33:23;;;;;;;3.58;1.10;;;20.80;99.90;;;;;;5029222;28;20061;-80
2023/08/05 03:35:48;;;;;;;2.28;1.00;;;20.80;99.90;;;;;;5029320;28;20029;-81
2023/08/05 03:38:15;;;;;;;3.75;1.00;;;20.80;99.90;;;;;;5029036;28;20026;-80
2023/08/05 03:40:40;;;;;;;4.40;1.35;;;20.80;99.90;;;;;;5030373;28;20033;-80
2023/08/05 03:43:06;;;;;;;2.63;1.10;;;20.80;99.90;;;;;;5029059;28;20497;-81
2023/08/05 03:45:32;;;;;;;1.83;1.00;;;20.70;99.90;;;;;;5028874;28;20033;-80
2023/08/05 03:47:57;;;;;;;4.25;0.98;;;20.70;99.90;;;;;;5030408;28;20100;-80
2023/08/05 03:50:23;;;;;;;3.97;1.00;;;20.70;99.90;;;;;;5030321;28;20482;-79
2023/08/05 03:52:49;;;;;;;3.20;1.05;;;20.70;99.90;;;;;;5028803;28;20021;-80
2023/08/05 03:55:15;;;;;;;5.10;1.05;;;20.80;99.90;;;;;;5033585;28;20402;-81
2023/08/05 03:57:42;;;;;;;5.20;1.13;;;20.80;99.90;;;;;;5034423;28;20025;-81
2023/08/05 04:00:11;;;;;;;4.43;1.65;;;20.80;99.90;;;;;;5034199;28;20109;-82
2023/08/05 04:02:37;;;;;;;3.47;1.42;;;20.80;99.90;;;;;;5034344;28;20025;-79
2023/08/05 04:05:04;;;;;;;5.90;1.58;;;20.80;99.90;;;;;;5032906;28;20021;-79
2023/08/05 04:07:33;;;;;;;4.65;1.90;;;20.80;99.90;;;;;;5032896;28;20041;-79
2023/08/05 04:09:59;;;;;;;2.78;1.90;;;20.90;99.90;;;;;;5034017;28;20069;-78
2023/08/05 04:12:25;;;;;;;4.10;1.90;;;20.90;99.90;;;;;;5032592;28;20080;-80
2023/08/05 04:14:52;;;;;;;2.97;2.10;;;20.90;99.90;;;;;;5033975;28;20055;-78
2023/08/05 04:17:19;;;;;;;4.43;2.30;;;21.00;99.90;;;;;;5033919;28;20022;-80
2023/08/05 04:19:46;;;;;;;4.93;2.42;;;21.00;99.90;;;;;;5032695;28;20030;-80
2023/08/05 04:22:12;;;;;;;3.67;2.92;;;21.10;99.90;;;;;;5033659;28;20032;-81
2023/08/05 04:24:39;;;;;;;3.20;2.90;;;21.00;99.90;;;;;;5032448;28;20080;-81
2023/08/05 04:27:05;;;;;;;5.47;3.20;;;21.10;99.90;;;;;;5033799;28;20029;-81
2023/08/05 04:29:30;;;;;;;7.35;3.35;;;21.10;99.90;;;;;;5032059;28;20034;-80
2023/08/05 04:31:56;;;;;;;4.47;3.60;;;21.10;99.90;;;;;;5032321;28;20505;-80
2023/08/05 04:34:22;;;;;;;6.18;4.22;;;21.20;99.90;;;;;;5033602;28;20502;-80
2023/08/05 04:36:51;;;;;;;6.05;4.65;;;21.20;99.90;;;;;;5032401;28;20041;-81
2023/08/05 04:39:21;;;;;;;7.15;6.45;;;21.20;99.90;;;;;;5033489;28;20026;-80
2023/08/05 04:41:47;;;;;;;11.48;7.13;;;21.40;99.90;;;;;;5033452;28;20116;-80
2023/08/05 04:44:13;;;;;;;9.30;8.05;;;21.50;99.90;;;;;;5033403;28;20117;-80
2023/08/05 04:46:39;;;;;;;7.47;6.68;;;21.70;99.90;;;;;;5033367;28;20061;-80
2023/08/05 04:49:07;;;;;;;9.98;6.97;;;21.80;99.90;;;;;;5031990;28;20115;-79
2023/08/05 04:51:36;;;;;;;8.95;6.45;;;21.90;99.90;;;;;;5033379;28;20039;-79
2023/08/05 04:54:02;;;;;;;12.38;6.65;;;22.20;99.90;;;;;;5030960;28;20040;-77
2023/08/05 04:56:28;;;;;;;6.47;5.88;;;22.40;99.90;;;;;;5033290;28;20032;-79
2023/08/05 04:58:54;;;;;;;8.05;6.88;;;22.60;99.90;;;;;;5033089;28;20026;-79
2023/08/05 05:01:20;;;;;;;7.90;7.07;;;22.70;99.90;;;;;;5031802;28;20026;-80
2023/08/05 05:03:46;;;;;;;7.05;6.25;;;22.80;99.90;;;;;;5031914;28;20052;-79
2023/08/05 05:06:12;;;;;;;10.38;6.85;;;22.70;99.90;;;;;;5031860;28;20508;-80
2023/08/05 05:08:38;;;;;;;7.15;6.30;;;22.70;99.90;;;;;;5031767;28;20091;-80
2023/08/05 05:11:04;;;;;;;9.25;7.10;;;22.70;99.90;;;;;;5031501;28;20485;-79
2023/08/05 05:13:29;;;;;;;9.63;7.68;;;22.70;99.90;;;;;;5031374;28;20104;-78
2023/08/05 05:15:55;;;;;;;8.95;7.15;;;22.70;99.90;;;;;;5031627;28;20112;-79
2023/08/05 05:18:21;;;;;;;7.95;7.15;;;22.70;99.90;;;;;;5031377;28;20088;-79
2023/08/05 05:20:50;;;;;;;9.90;7.85;;;22.70;99.90;;;;;;5032562;28;20040;-79
2023/08/05 05:23:16;;;;;;;10.55;7.40;;;22.60;99.90;;;;;;5032681;28;20500;-78
2023/08/05 05:25:42;;;;;;;12.73;7.90;;;22.60;99.90;;;;;;5032673;28;20038;-80
2023/08/05 05:28:08;;;;;;;9.60;7.20;;;22.60;99.90;;;;;;5032594;28;20040;-80
2023/08/05 05:30:37;;;;;;;9.05;6.95;;;22.70;99.90;;;;;;5030978;28;20030;-79
2023/08/05 05:33:02;;;;;;;9.15;6.55;;;22.70;99.90;;;;;;5031266;28;20025;-80
2023/08/05 05:35:31;;;;;;;10.38;6.80;;;22.70;99.90;;;;;;5032456;28;20100;-79
2023/08/05 05:37:56;;;;;;;12.35;7.32;;;22.80;99.90;;;;;;5031196;28;20031;-80
2023/08/05 05:40:22;;;;;;;10.75;7.88;;;22.80;99.90;;;;;;5032333;28;20025;-79
2023/08/05 05:42:51;;;;;;;12.05;8.43;;;22.90;99.90;;;;;;5030911;28;20112;-80
2023/08/05 05:45:17;;;;;;;11.88;7.68;;;22.80;99.90;;;;;;5032162;28;20433;-80
2023/08/05 05:47:44;;;;;;;8.85;7.40;;;22.90;99.90;;;;;;5032362;28;20029;-79
2023/08/05 05:50:10;;;;;;;11.70;7.20;;;23.00;99.90;;;;;;5031978;28;20035;-80
2023/08/05 05:52:36;;;;;;;8.13;7.25;;;23.00;99.90;;;;;;5030835;28;20075;-79
2023/08/05 05:55:03;;;;;;;9.43;7.22;;;23.10;99.90;;;;;;5032189;28;20033;-79
2023/08/05 05:57:28;;;;;;;16.35;7.85;;;23.20;99.90;;;;;;5032193;28;20112;-78
2023/08/05 05:59:55;;;;;;;9.25;8.15;;;23.30;99.90;;;;;;5030736;28;20112;-78
2023/08/05 06:02:22;;;;;;;12.95;9.93;;;23.50;99.90;;;;;;5032172;28;20029;-79
2023/08/05 06:04:48;;;;;;;8.18;7.28;;;23.60;99.90;;;;;;5031858;28;20192;-78
2023/08/05 06:07:13;;;;;;;8.07;6.53;;;23.70;99.90;;;;;;5031855;28;20548;-78
2023/08/05 06:09:39;;;;;;;11.70;6.47;;;23.70;99.90;;;;;;5031480;28;20043;-79
2023/08/05 06:12:07;;;;;;;9.80;6.32;;;23.70;99.90;;;;;;5031534;28;20053;-79
2023/08/05 06:14:33;;;;;;;8.45;5.75;;;23.70;99.90;;;;;;5031778;28;20072;-79
2023/08/05 06:16:59;;;;;;;8.90;6.55;;;23.70;99.90;;;;;;5030175;28;20397;-79
2023/08/05 06:19:25;;;;;;;8.75;6.60;;;23.90;99.90;;;;;;5030565;28;20030;-79
2023/08/05 06:21:50;;;;;;;11.05;7.65;;;24.10;99.90;;;;;;5030084;28;20056;-79
2023/08/05 06:24:17;;;;;;;11.50;8.38;;;24.20;99.90;;;;;;5031474;28;20053;-78
2023/08/05 06:26:43;;;;;;;9.02;8.10;;;24.30;99.90;;;;;;5031470;28;20021;-79
2023/08/05 06:29:08;;;;;;;11.05;7.72;;;24.40;99.90;;;;;;5031342;28;20029;-78
2023/08/05 06:31:34;;;;;;;10.20;7.45;;;24.60;99.90;;;;;;5029900;28;20079;-78
2023/08/05 06:34:00;;;;;;;8.57;6.03;;;24.80;99.90;;;;;;5029875;28;20026;-78
2023/08/05 06:36:25;;;;;;;7.63;5.28;;;25.00;99.90;;;;;;5030285;28;20036;-79
2023/08/05 06:38:51;;;;;;;12.80;5.55;;;25.10;99.90;;;;;;5031290;28;20030;-79
2023/08/05 06:41:16;;;;;;;19.35;6.85;;;25.20;99.90;;;;;;5031202;28;20536;-78
2023/08/05 06:43:42;;;;;;;7.45;6.47;;;25.30;99.90;;;;;;5029703;28;20037;-79
2023/08/05 06:46:08;;;;;;;8.88;5.80;;;25.40;99.90;;;;;;5029858;28;20470;-78
2023/08/05 06:48:33;;;;;;;8.63;6.65;;;25.60;99.90;;;;;;5029812;28;20029;-79
2023/08/05 06:50:59;;;;;;;6.90;5.80;;;25.60;99.90;;;;;;5029761;28;20525;-79
2023/08/05 06:53:25;;;;;;;9.10;7.10;;;25.70;99.90;;;;;;5030910;28;20492;-78
2023/08/05 06:56:01;;;;;;;10.82;6.53;;;26.00;99.90;;;;;;5029495;28;20026;-78
2023/08/05 06:58:27;;;;;;;12.32;6.10;;;26.30;99.90;;;;;;5029648;28;20482;-78
2023/08/05 07:00:53;;;;;;;9.23;5.82;;;26.50;99.90;;;;;;5030774;28;20039;-78
2023/08/05 07:03:18;;;;;;;7.88;6.13;;;27.00;99.90;;;;;;5029506;28;20025;-78
2023/08/05 07:05:44;;;;;;;11.05;6.10;;;27.60;99.90;;;;;;5030733;28;20065;-79
2023/08/05 07:08:10;;;;;;;10.00;6.03;;;27.90;99.90;;;;;;5031263;28;20029;-79
2023/08/05 07:10:36;;;;;;;7.13;5.75;;;28.00;99.90;;;;;;5031014;28;20116;-79
2023/08/05 07:13:05;;;;;;;11.73;5.30;;;27.70;99.90;;;;;;5030711;28;20466;-77
2023/08/05 07:15:34;;;;;;;16.92;5.90;;;27.80;99.90;;;;;;5030611;28;20483;-79
2023/08/05 07:18:00;;;;;;;10.82;5.65;;;27.70;99.90;;;;;;5030612;28;20022;-79
2023/08/05 07:20:26;;;;;;;8.32;5.43;;;27.90;99.90;;;;;;5029349;28;20033;-78
2023/08/05 07:22:51;;;;;;;12.18;6.53;;;28.40;99.90;;;;;;5029014;28;20105;-78
2023/08/05 07:25:17;;;;;;;12.23;5.70;;;28.90;99.90;;;;;;5030358;28;20148;-78
2023/08/05 07:27:43;;;;;;;9.38;5.40;;;28.90;99.90;;;;;;5029005;28;20094;-79
2023/08/05 07:30:09;;;;;;;9.93;5.40;;;28.70;99.90;;;;;;5029751;28;20456;-78
2023/08/05 07:32:34;;;;;;;11.50;5.05;;;28.40;99.90;;;;;;5030379;28;20025;-79
2023/08/05 07:35:00;;;;;;;11.05;5.80;;;28.20;99.90;;;;;;5029123;28;20045;-79
2023/08/05 07:37:26;;;;;;;5.80;5.15;;;28.20;99.90;;;;;;5030327;28;20025;-78
2023/08/05 07:39:52;;;;;;;9.68;5.10;;;28.60;99.90;;;;;;5030317;28;20029;-79
2023/08/05 07:42:20;;;;;;;7.35;5.53;;;28.80;99.90;;;;;;5030323;28;20466;-78
2023/08/05 07:44:47;;;;;;;9.18;5.30;;;28.80;99.90;;;;;;5029063;28;20029;-79
2023/08/05 07:47:13;;;;;;;5.60;5.10;;;28.70;99.90;;;;;;5030379;28;20029;-79
2023/08/05 07:49:39;;;;;;;7.65;4.70;;;28.60;99.90;;;;;;5030276;28;20029;-78
2023/08/05 07:52:06;;;;;;;6.65;5.28;;;28.40;99.90;;;;;;5030289;28;20048;-78
2023/08/05 07:54:32;;;;;;;6.43;4.85;;;28.00;99.90;;;;;;5028940;28;20048;-78
2023/08/05 07:56:58;;;;;;;8.48;5.03;;;28.20;99.90;;;;;;5030106;28;20026;-79
2023/08/05 07:59:25;;;;;;;9.10;6.07;;;28.70;99.90;;;;;;5030164;28;20440;-79
2023/08/05 08:01:53;;;;;;;10.10;5.07;;;29.00;99.90;;;;;;5030260;28;20032;-77
2023/08/05 08:04:18;;;;;;;8.23;4.97;;;29.40;99.90;;;;;;5030211;28;20017;-78
2023/08/05 08:06:45;;;;;;;7.20;4.72;;;29.70;99.90;;;;;;5030065;28;20660;-78
2023/08/05 08:09:12;;;;;;;8.77;4.93;;;29.70;99.70;;;;;;5028805;28;20413;-79
2023/08/05 08:11:38;;;;;;;5.40;4.90;;;29.60;99.90;;;;;;5028434;28;20030;-78
2023/08/05 08:14:04;;;;;;;8.23;4.68;;;29.50;99.00;;;;;;5028763;28;20044;-79
2023/08/05 08:16:31;;;;;;;8.52;5.05;;;29.60;99.30;;;;;;5028701;28;20075;-79
2023/08/05 08:18:56;;;;;;;5.97;4.90;;;29.40;99.80;;;;;;5028822;28;20034;-79
2023/08/05 08:21:22;;;;;;;7.72;5.03;;;29.10;99.90;;;;;;5028561;28;20021;-78
2023/08/05 08:23:48;;;;;;;10.82;5.18;;;28.80;99.90;;;;;;5028648;28;20029;-78
2023/08/05 08:26:13;;;;;;;8.40;6.00;;;28.40;99.90;;;;;;5029783;28;20036;-78
2023/08/05 08:28:39;;;;;;;6.47;5.03;;;28.20;99.90;;;;;;5029885;28;20091;-78
2023/08/05 08:31:05;;;;;;;9.27;4.35;;;28.20;99.90;;;;;;5028404;28;20069;-79
2023/08/05 08:33:30;;;;;;;6.00;5.03;;;28.10;99.90;;;;;;5028589;28;20135;-80
2023/08/05 08:35:56;;;;;;;10.75;5.15;;;27.80;99.90;;;;;;5028769;28;20485;-80
2023/08/05 08:38:22;;;;;;;12.32;5.32;;;27.50;99.90;;;;;;5029748;28;20491;-80
2023/08/05 08:40:50;;;;;;;9.98;4.95;;;27.20;99.90;;;;;;5031924;28;20020;-80
2023/08/05 08:43:22;;;;;;;7.15;5.35;;;27.00;99.90;;;;;;5033483;28;20071;-80
2023/08/05 08:45:52;;;;;;;6.97;5.47;;;27.60;99.90;;;;;;5032027;28;20414;-79
2023/08/05 08:48:18;;;;;;;7.22;5.40;;;28.40;99.90;;;;;;5033154;28;20013;-79
2023/08/05 08:50:46;;;;;;;7.00;4.72;;;29.00;99.90;;;;;;5032999;28;20577;-80
2023/08/05 08:53:15;;;;;;;6.20;4.63;;;29.40;99.90;;;;;;5031810;28;20109;-79
2023/08/05 08:55:42;;;;;;;7.95;5.22;;;30.30;99.90;;;;;;5033161;28;20555;-77
2023/08/05 08:58:09;;;;;;;6.72;4.82;;;30.60;99.00;;;;;;5033098;28;20567;-80
2023/08/05 09:00:36;;;;;;;5.88;4.72;;;30.70;98.80;;;;;;5033104;28;20563;-79
2023/08/05 09:03:04;;;;;;;7.78;4.57;;;30.60;99.00;;;;;;5031710;28;20030;-78
2023/08/05 09:05:53;;;;;;;5.65;4.30;;;30.50;99.90;;;;;;5032824;28;20029;-79
2023/08/05 09:08:20;;;;;;;7.40;4.95;;;30.80;98.20;;;;;;5032958;28;20067;-79
2023/08/05 09:10:45;;;;;;;8.02;4.82;;;30.60;97.90;;;;;;5031620;28;20140;-79
2023/08/05 09:13:16;;;;;;;12.35;5.15;;;30.00;98.80;;;;;;5032678;28;20128;-81
2023/08/05 09:15:41;;;;;;;7.90;5.25;;;29.60;99.90;;;;;;5032806;28;20053;-80
2023/08/05 09:18:08;;;;;;;7.28;5.28;;;29.20;99.90;;;;;;5032517;28;20022;-81
2023/08/05 09:20:35;;;;;;;10.40;5.45;;;29.10;99.90;;;;;;5031321;28;20033;-79
2023/08/05 09:23:02;;;;;;;7.72;5.63;;;29.00;99.90;;;;;;5031297;28;20022;-79
2023/08/05 09:25:29;;;;;;;9.55;5.78;;;29.30;99.90;;;;;;5031383;28;20437;-80
2023/08/05 09:27:56;;;;;;;10.25;5.63;;;29.90;99.90;;;;;;5031301;28;20040;-78
2023/08/05 09:30:23;;;;;;;10.05;6.07;;;29.90;98.60;;;;;;5032393;28;20670;-80
2023/08/05 09:32:49;;;;;;;8.57;5.68;;;29.30;99.90;;;;;;5032405;28;20120;-78
2023/08/05 09:35:16;;;;;;;10.77;6.53;;;28.60;99.90;;;;;;5031172;28;20462;-80
2023/08/05 09:37:49;;;;;;;10.23;6.70;;;28.30;99.90;;;;;;5032448;28;20076;-80
2023/08/05 09:40:21;;;;;;;9.93;6.60;;;28.20;99.90;;;;;;5031066;28;20059;-80
2023/08/05 09:42:48;;;;;;;6.80;5.97;;;28.00;99.90;;;;;;5032340;28;20025;-80
2023/08/05 09:45:16;;;;;;;8.38;6.03;;;27.90;99.90;;;;;;5032386;28;20045;-79
2023/08/05 09:47:49;;;;;;;10.38;7.25;;;28.10;99.90;;;;;;5030879;28;20021;-79
2023/08/05 09:50:16;;;;;;;13.32;6.00;;;28.40;99.90;;;;;;5032113;28;20120;-79
2023/08/05 09:52:43;;;;;;;11.48;6.53;;;29.30;99.90;;;;;;5031517;28;20068;-79
2023/08/05 09:55:14;;;;;;;6.68;6.07;;;30.10;99.90;;;;;;5030784;28;20406;-80
2023/08/05 09:57:43;;;;;;;8.63;5.93;;;30.60;99.90;;;;;;5032011;28;20040;-80
2023/08/05 10:00:11;;;;;;;6.65;5.28;;;30.80;99.90;;;;;;5030449;28;20525;-79
2023/08/05 10:02:39;;;;;;;9.10;6.22;;;31.00;99.90;;;;;;5030340;28;20134;-80
2023/08/05 10:05:05;;;;;;;10.32;5.97;;;31.20;98.30;;;;;;5031726;28;20067;-79
2023/08/05 10:07:31;;;;;;;7.93;5.57;;;31.20;97.50;;;;;;5030348;28;20026;-79
2023/08/05 10:09:58;;;;;;;6.55;5.70;;;31.00;96.80;;;;;;5031437;28;20037;-79
2023/08/05 10:12:36;;;;;;;12.00;6.05;;;30.90;98.10;;;;;;5031271;28;20045;-79
2023/08/05 10:15:03;;;;;;;10.93;6.30;;;30.90;99.00;;;;;;5030435;28;20088;-79
2023/08/05 10:17:29;;;;;;;8.60;5.45;;;30.90;99.90;;;;;;5031537;28;20030;-80
2023/08/05 10:19:54;;;;;;;8.40;5.93;;;30.70;99.90;;;;;;5030226;28;20032;-80
2023/08/05 10:22:22;;;;;;;9.80;6.07;;;30.40;99.90;;;;;;5031325;28;20104;-80
2023/08/05 10:24:51;;;;;;;12.63;6.50;;;30.10;99.90;;;;;;5031446;28;20026;-80
2023/08/05 10:27:17;;;;;;;8.13;6.05;;;30.00;99.90;;;;;;5031404;28;20029;-79
2023/08/05 10:29:52;;;;;;;10.65;6.22;;;29.90;99.90;;;;;;5031382;28;20447;-79
2023/08/05 10:32:28;;;;;;;9.15;6.25;;;29.80;99.90;;;;;;5031385;28;20052;-79
2023/08/05 10:35:27;;;;;;;10.57;7.07;;;29.70;99.90;;;;;;5031430;28;20176;-78
2023/08/05 10:38:09;;;;;;;11.95;6.95;;;29.70;99.90;;;;;;5031286;28;20026;-79
2023/08/05 10:40:39;;;;;;;10.25;7.50;;;29.40;99.90;;;;;;5029867;28;20454;-79
2023/08/05 10:43:05;;;;;;;10.70;7.07;;;29.40;99.90;;;;;;5029985;28;20040;-79
2023/08/05 10:45:35;;;;;;;8.02;6.80;;;29.30;99.90;;;;;;5031013;28;20646;-82
2023/08/05 10:48:07;;;;;;;18.52;7.72;;;29.30;99.90;;;;;;5031046;28;20025;-79
2023/08/05 10:50:38;;;;;;;11.40;6.95;;;29.30;99.90;;;;;;5029652;28;20034;-79
2023/08/05 10:53:09;;;;;;;11.82;6.57;;;29.20;99.90;;;;;;5030936;28;20057;-80
2023/08/05 10:55:49;;;;;;;15.55;7.47;;;29.20;99.90;;;;;;5029577;28;20419;-79
2023/08/05 10:58:47;;;;;;;9.40;7.63;;;29.30;99.90;;;;;;5030880;28;20030;-79
2023/08/05 11:01:14;;;;;;;8.85;7.60;;;29.10;99.90;;;;;;5025753;28;20077;-79
2023/08/05 11:03:41;;;;;;;11.85;7.93;;;29.20;99.90;;;;;;5030181;28;20029;-79
2023/08/05 11:06:07;;;;;;;12.88;8.00;;;29.10;99.90;;;;;;5030652;28;20033;-80
2023/08/05 11:08:36;;;;;;;8.13;7.32;;;29.10;99.90;;;;;;5030780;28;20018;-79
2023/08/05 11:11:07;;;;;;;8.85;7.53;;;29.20;99.90;;;;;;5030632;28;20060;-81
2023/08/05 11:13:38;;;;;;;12.18;8.32;;;29.30;99.90;;;;;;5030412;28;20049;-79
2023/08/05 11:16:15;;;;;;;11.50;7.90;;;29.30;99.90;;;;;;5030376;28;20040;-80
2023/08/05 11:18:43;;;;;;;8.73;7.82;;;29.30;99.90;;;;;;5030418;28;20024;-79
2023/08/05 11:21:14;;;;;;;14.18;7.93;;;29.30;99.90;;;;;;5030337;28;20035;-80
2023/08/05 11:23:45;;;;;;;8.88;7.53;;;29.50;99.90;;;;;;5030352;28;20048;-80
2023/08/05 11:26:11;;;;;;;9.48;7.55;;;29.40;99.90;;;;;;5030399;28;20064;-79
2023/08/05 11:28:45;;;;;;;12.70;7.53;;;29.60;99.90;;;;;;5030327;28;20099;-79
2023/08/05 11:31:20;;;;;;;11.02;7.70;;;29.80;99.90;;;;;;5028838;28;20034;-79
2023/08/05 11:33:47;;;;;;;;;;;29.80;99.90;;;;;;5030944;28;20057;-79
2023/08/05 11:36:13;;;;;;;;;;;29.80;99.90;;;;;;5030920;28;19913;-79
2023/08/05 11:38:39;;;;;;;12.10;7.72;;;29.90;99.90;;;;;;5030465;28;19905;-79
2023/08/05 11:41:05;;;;;;;12.38;7.45;;;29.90;99.90;;;;;;5029127;28;20025;-78
2023/08/05 11:43:32;;;;;;;9.45;8.27;;;29.80;99.90;;;;;;5030190;28;20032;-79
2023/08/05 11:45:58;;;;;;;11.45;8.25;;;29.90;99.90;;;;;;5029077;28;20033;-79
2023/08/05 11:48:27;;;;;;;14.73;8.27;;;30.00;99.90;;;;;;5030296;28;20091;-78
2023/08/05 11:51:11;;;;;;;11.18;8.75;;;30.00;99.90;;;;;;5029033;28;20044;-77
2023/08/05 11:53:47;;;;;;;16.38;8.25;;;30.10;99.90;;;;;;5029046;28;20116;-78
2023/08/05 11:56:23;;;;;;;15.15;8.90;;;30.10;99.90;;;;;;5030336;28;20032;-79
2023/08/05 11:58:49;;;;;;;9.95;8.05;;;30.20;99.90;;;;;;5029000;28;20120;-78
2023/08/05 12:01:14;;;;;;;11.43;8.95;;;30.30;99.90;;;;;;5030125;28;20116;-78
2023/08/05 12:03:40;;;;;;;9.15;7.85;;;30.40;99.90;;;;;;5030217;28;20025;-79
2023/08/05 12:06:06;;;;;;;14.43;8.23;;;30.40;99.90;;;;;;5029115;28;20048;-79
2023/08/05 12:08:37;;;;;;;12.52;9.48;;;30.60;99.90;;;;;;5030102;28;20479;-79
2023/08/05 12:11:03;;;;;;;14.63;8.77;;;30.80;99.90;;;;;;5030021;28;20087;-78
2023/08/05 12:13:34;;;;;;;12.23;8.65;;;30.90;99.90;;;;;;5029969;28;20045;-79
2023/08/05 12:15:59;;;;;;;9.50;7.85;;;31.30;99.90;;;;;;5031534;28;20064;-79
2023/08/05 12:18:25;;;;;;;12.13;8.05;;;31.30;99.90;;;;;;5032882;28;20049;-79
2023/08/05 12:20:51;;;;;;;12.10;7.97;;;31.30;99.90;;;;;;5033768;28;20029;-78
2023/08/05 12:23:16;;;;;;;10.15;7.90;;;31.10;99.90;;;;;;5033543;28;20464;-77
2023/08/05 12:25:42;;;;;;;8.85;8.00;;;31.10;99.90;;;;;;5032362;28;20041;-80
2023/08/05 12:28:08;;;;;;;11.80;8.00;;;31.00;99.90;;;;;;5032299;28;20025;-79
2023/08/05 12:30:34;;;;;;;11.15;8.68;;;30.90;99.90;;;;;;5032512;28;20033;-79
2023/08/05 12:32:59;;;;;;;10.68;8.68;;;30.90;99.90;;;;;;5032315;28;20079;-78
2023/08/05 12:35:25;;;;;;;9.60;8.05;;;31.10;99.90;;;;;;5032416;28;20120;-79
2023/08/05 12:37:52;;;;;;;13.15;8.18;;;31.10;99.90;;;;;;5033569;28;20482;-79
2023/08/05 12:40:18;;;;;;;10.05;8.25;;;31.00;99.90;;;;;;5032199;28;20029;-79
2023/08/05 12:42:43;;;;;;;12.98;8.25;;;31.00;99.90;;;;;;5033299;28;20156;-79
2023/08/05 12:45:09;;;;;;;8.68;7.78;;;30.80;99.90;;;;;;5033535;28;20112;-80